Terminal Aerodrome Forecast
Issued by NWS Albany, NY

Home | Current Version | Previous Version | Text Only | Print | Product List | Glossary On
Versions: 1 2 3 4 5 6 7 8 9 10 11 12 13 14 15 16 17 18 19 20 21 22 23 24
000
FTUS41 KALY 310323 AAD
TAFPOU
TAF AMD
KPOU 310323Z 3103/3124 04004KT 6SM -RA BR SCT003 OVC060
      TEMPO 3103/3106 3SM -RA BR BKN003 OVC012
     FM310600 09002KT 4SM -RA BR OVC007
     FM311300 09004KT 2SM RA BR OVC010=

USA.gov is the U.S. government's official web portal to all federal, state and local government web resources and services.